YMIA

Mildura Airport

Airport
ICAO code
YMIA
IATA Code
MQL
Summary
ICAO Region
APAC
ICAO Territory
Location

, Victoria

Serving
Mildura
Elevation
167 ft
Coordinates
34° 13' 45" S , 142° 5' 10" E
Metar
Observation
YMIA 262229Z AUTO 26008KT 9999 // SCT009 BKN036 BKN041 10/09 Q1015
Station
Mildura Airport
Date/Time
2022-09-26 22:29:00
Wind direction
260°
Wind speed
08 kts
Lowest cloud amount
scattered clouds
Temperature
10°C
Dew point
9°C
Humidity
93%
QNH
1015 hPa
Weather condition
n/a

Airport map

Aerial View

SKYbrary Partners:

Safety knowledge contributed by: